sensor_id;sensor_type;location;lat;lon;timestamp;P1;durP1;ratioP1;P2;durP2;ratioP2
20619;SDS011;10469;42.720;23.252;2023-12-20T00:01:21;67.35;;;42.72;;
20619;SDS011;10469;42.720;23.252;2023-12-20T00:03:47;63.70;;;40.78;;
20619;SDS011;10469;42.720;23.252;2023-12-20T00:06:13;65.57;;;38.80;;
20619;SDS011;10469;42.720;23.252;2023-12-20T00:08:38;71.45;;;40.92;;
20619;SDS011;10469;42.720;23.252;2023-12-20T00:11:03;65.20;;;40.33;;
20619;SDS011;10469;42.720;23.252;2023-12-20T00:13:29;65.93;;;38.60;;
20619;SDS011;10469;42.720;23.252;2023-12-20T00:15:54;66.38;;;40.17;;
20619;SDS011;10469;42.720;23.252;2023-12-20T00:18:20;61.92;;;39.15;;
20619;SDS011;10469;42.720;23.252;2023-12-20T00:20:45;64.95;;;38.55;;
20619;SDS011;10469;42.720;23.252;2023-12-20T00:23:11;61.03;;;37.90;;
20619;SDS011;10469;42.720;23.252;2023-12-20T00:25:36;65.60;;;37.58;;
20619;SDS011;10469;42.720;23.252;2023-12-20T00:28:02;68.97;;;37.42;;
20619;SDS011;10469;42.720;23.252;2023-12-20T00:30:28;64.60;;;38.88;;
20619;SDS011;10469;42.720;23.252;2023-12-20T00:32:53;69.05;;;39.80;;
20619;SDS011;10469;42.720;23.252;2023-12-20T00:35:19;58.50;;;35.88;;
20619;SDS011;10469;42.720;23.252;2023-12-20T00:37:45;66.47;;;37.60;;
20619;SDS011;10469;42.720;23.252;2023-12-20T00:40:10;64.50;;;38.67;;
20619;SDS011;10469;42.720;23.252;2023-12-20T00:42:36;61.97;;;37.78;;
20619;SDS011;10469;42.720;23.252;2023-12-20T00:45:02;59.85;;;33.00;;
20619;SDS011;10469;42.720;23.252;2023-12-20T00:47:29;60.10;;;33.50;;
20619;SDS011;10469;42.720;23.252;2023-12-20T00:49:55;57.63;;;35.75;;
20619;SDS011;10469;42.720;23.252;2023-12-20T00:52:21;53.80;;;31.92;;
20619;SDS011;10469;42.720;23.252;2023-12-20T00:54:47;48.28;;;31.15;;
20619;SDS011;10469;42.720;23.252;2023-12-20T00:57:13;49.72;;;30.08;;
20619;SDS011;10469;42.720;23.252;2023-12-20T00:59:39;50.88;;;30.85;;
20619;SDS011;10469;42.720;23.252;2023-12-20T01:02:04;50.80;;;30.58;;
20619;SDS011;10469;42.720;23.252;2023-12-20T01:04:30;52.67;;;28.92;;
20619;SDS011;10469;42.720;23.252;2023-12-20T01:06:55;50.53;;;28.55;;
20619;SDS011;10469;42.720;23.252;2023-12-20T01:09:21;47.13;;;28.73;;
20619;SDS011;10469;42.720;23.252;2023-12-20T01:11:51;47.00;;;28.55;;
20619;SDS011;10469;42.720;23.252;2023-12-20T01:14:17;44.30;;;27.50;;
20619;SDS011;10469;42.720;23.252;2023-12-20T01:16:42;46.10;;;29.63;;
20619;SDS011;10469;42.720;23.252;2023-12-20T01:19:08;48.50;;;31.33;;
20619;SDS011;10469;42.720;23.252;2023-12-20T01:21:33;54.05;;;32.58;;
20619;SDS011;10469;42.720;23.252;2023-12-20T01:23:59;48.50;;;30.30;;
20619;SDS011;10469;42.720;23.252;2023-12-20T01:26:24;53.75;;;32.80;;
20619;SDS011;10469;42.720;23.252;2023-12-20T01:28:50;53.67;;;31.23;;
20619;SDS011;10469;42.720;23.252;2023-12-20T01:31:15;49.25;;;28.63;;
20619;SDS011;10469;42.720;23.252;2023-12-20T01:33:41;42.25;;;27.33;;
20619;SDS011;10469;42.720;23.252;2023-12-20T01:36:06;41.35;;;25.63;;
20619;SDS011;10469;42.720;23.252;2023-12-20T01:38:32;54.15;;;32.15;;
20619;SDS011;10469;42.720;23.252;2023-12-20T01:40:58;54.90;;;33.53;;
20619;SDS011;10469;42.720;23.252;2023-12-20T01:43:24;44.25;;;26.45;;
20619;SDS011;10469;42.720;23.252;2023-12-20T01:45:50;42.85;;;24.95;;
20619;SDS011;10469;42.720;23.252;2023-12-20T01:48:16;44.08;;;27.65;;
20619;SDS011;10469;42.720;23.252;2023-12-20T01:50:42;57.38;;;32.20;;
20619;SDS011;10469;42.720;23.252;2023-12-20T01:53:09;57.33;;;30.17;;
20619;SDS011;10469;42.720;23.252;2023-12-20T01:55:38;44.25;;;28.77;;
20619;SDS011;10469;42.720;23.252;2023-12-20T01:58:05;47.17;;;30.38;;
20619;SDS011;10469;42.720;23.252;2023-12-20T02:00:32;43.63;;;27.48;;
20619;SDS011;10469;42.720;23.252;2023-12-20T02:03:01;45.13;;;27.60;;
20619;SDS011;10469;42.720;23.252;2023-12-20T02:05:27;43.72;;;28.00;;
20619;SDS011;10469;42.720;23.252;2023-12-20T02:07:54;49.80;;;29.90;;
20619;SDS011;10469;42.720;23.252;2023-12-20T02:10:19;44.22;;;27.60;;
20619;SDS011;10469;42.720;23.252;2023-12-20T02:12:45;45.25;;;27.02;;
20619;SDS011;10469;42.720;23.252;2023-12-20T02:15:11;45.25;;;28.20;;
20619;SDS011;10469;42.720;23.252;2023-12-20T02:17:36;57.67;;;34.90;;
20619;SDS011;10469;42.720;23.252;2023-12-20T02:20:04;62.88;;;38.25;;
20619;SDS011;10469;42.720;23.252;2023-12-20T02:22:30;65.22;;;37.38;;
20619;SDS011;10469;42.720;23.252;2023-12-20T02:24:56;86.20;;;43.92;;
20619;SDS011;10469;42.720;23.252;2023-12-20T02:27:22;176.95;;;47.00;;
20619;SDS011;10469;42.720;23.252;2023-12-20T02:29:48;173.32;;;46.80;;
20619;SDS011;10469;42.720;23.252;2023-12-20T02:32:15;140.13;;;49.83;;
20619;SDS011;10469;42.720;23.252;2023-12-20T02:34:42;143.55;;;51.42;;
20619;SDS011;10469;42.720;23.252;2023-12-20T02:37:07;271.48;;;48.08;;
20619;SDS011;10469;42.720;23.252;2023-12-20T02:39:33;317.27;;;46.53;;
20619;SDS011;10469;42.720;23.252;2023-12-20T02:41:58;267.23;;;43.55;;
20619;SDS011;10469;42.720;23.252;2023-12-20T02:44:24;279.67;;;42.05;;
20619;SDS011;10469;42.720;23.252;2023-12-20T02:46:49;252.10;;;43.08;;
20619;SDS011;10469;42.720;23.252;2023-12-20T02:49:15;245.27;;;44.72;;
20619;SDS011;10469;42.720;23.252;2023-12-20T02:51:41;195.73;;;43.80;;
20619;SDS011;10469;42.720;23.252;2023-12-20T02:54:06;288.75;;;46.30;;
20619;SDS011;10469;42.720;23.252;2023-12-20T02:56:32;154.73;;;39.65;;
20619;SDS011;10469;42.720;23.252;2023-12-20T02:58:58;265.98;;;45.60;;
20619;SDS011;10469;42.720;23.252;2023-12-20T03:01:23;181.10;;;45.22;;
20619;SDS011;10469;42.720;23.252;2023-12-20T03:03:49;201.68;;;49.58;;
20619;SDS011;10469;42.720;23.252;2023-12-20T03:06:18;135.05;;;45.28;;
20619;SDS011;10469;42.720;23.252;2023-12-20T03:08:44;91.15;;;43.65;;
20619;SDS011;10469;42.720;23.252;2023-12-20T03:11:10;95.28;;;44.97;;
20619;SDS011;10469;42.720;23.252;2023-12-20T03:13:36;103.45;;;47.15;;
20619;SDS011;10469;42.720;23.252;2023-12-20T03:16:07;103.20;;;45.08;;
20619;SDS011;10469;42.720;23.252;2023-12-20T03:18:37;99.22;;;44.97;;
20619;SDS011;10469;42.720;23.252;2023-12-20T03:21:03;93.45;;;45.38;;
20619;SDS011;10469;42.720;23.252;2023-12-20T03:23:29;98.85;;;46.95;;
20619;SDS011;10469;42.720;23.252;2023-12-20T03:25:57;93.60;;;48.38;;
20619;SDS011;10469;42.720;23.252;2023-12-20T03:28:23;154.73;;;48.83;;
20619;SDS011;10469;42.720;23.252;2023-12-20T03:30:49;91.80;;;45.20;;
20619;SDS011;10469;42.720;23.252;2023-12-20T03:33:14;87.88;;;44.78;;
20619;SDS011;10469;42.720;23.252;2023-12-20T03:35:40;116.78;;;47.15;;
20619;SDS011;10469;42.720;23.252;2023-12-20T03:38:05;106.68;;;46.60;;
20619;SDS011;10469;42.720;23.252;2023-12-20T03:40:31;126.57;;;45.60;;
20619;SDS011;10469;42.720;23.252;2023-12-20T03:42:56;90.03;;;43.85;;
20619;SDS011;10469;42.720;23.252;2023-12-20T03:45:22;101.70;;;45.00;;
20619;SDS011;10469;42.720;23.252;2023-12-20T03:47:48;96.05;;;44.72;;
20619;SDS011;10469;42.720;23.252;2023-12-20T03:50:14;110.68;;;48.78;;
20619;SDS011;10469;42.720;23.252;2023-12-20T03:52:40;95.55;;;46.55;;
20619;SDS011;10469;42.720;23.252;2023-12-20T03:55:06;213.98;;;52.85;;
20619;SDS011;10469;42.720;23.252;2023-12-20T03:57:31;115.20;;;45.78;;
20619;SDS011;10469;42.720;23.252;2023-12-20T03:59:57;122.82;;;46.80;;
20619;SDS011;10469;42.720;23.252;2023-12-20T04:02:22;181.35;;;50.58;;
20619;SDS011;10469;42.720;23.252;2023-12-20T04:04:48;171.30;;;44.90;;
20619;SDS011;10469;42.720;23.252;2023-12-20T04:07:13;124.03;;;44.72;;
20619;SDS011;10469;42.720;23.252;2023-12-20T04:09:40;102.35;;;42.90;;
20619;SDS011;10469;42.720;23.252;2023-12-20T04:12:06;121.88;;;44.47;;
20619;SDS011;10469;42.720;23.252;2023-12-20T04:14:32;160.50;;;45.05;;
20619;SDS011;10469;42.720;23.252;2023-12-20T04:16:57;131.25;;;44.03;;
20619;SDS011;10469;42.720;23.252;2023-12-20T04:19:23;240.43;;;44.38;;
20619;SDS011;10469;42.720;23.252;2023-12-20T04:21:48;124.47;;;41.17;;
20619;SDS011;10469;42.720;23.252;2023-12-20T04:24:14;180.48;;;42.05;;
20619;SDS011;10469;42.720;23.252;2023-12-20T04:26:39;106.70;;;43.13;;
20619;SDS011;10469;42.720;23.252;2023-12-20T04:29:05;141.68;;;44.72;;
20619;SDS011;10469;42.720;23.252;2023-12-20T04:31:30;156.43;;;42.72;;
20619;SDS011;10469;42.720;23.252;2023-12-20T04:33:56;163.50;;;45.95;;
20619;SDS011;10469;42.720;23.252;2023-12-20T04:36:21;217.07;;;46.50;;
20619;SDS011;10469;42.720;23.252;2023-12-20T04:38:47;141.40;;;47.30;;
20619;SDS011;10469;42.720;23.252;2023-12-20T04:41:13;195.40;;;49.90;;
20619;SDS011;10469;42.720;23.252;2023-12-20T04:43:43;150.38;;;45.90;;
20619;SDS011;10469;42.720;23.252;2023-12-20T04:46:09;216.63;;;49.83;;
20619;SDS011;10469;42.720;23.252;2023-12-20T04:48:34;174.70;;;49.33;;
20619;SDS011;10469;42.720;23.252;2023-12-20T04:51:03;205.05;;;49.67;;
20619;SDS011;10469;42.720;23.252;2023-12-20T04:53:29;160.00;;;47.63;;
20619;SDS011;10469;42.720;23.252;2023-12-20T04:55:54;246.93;;;52.17;;
20619;SDS011;10469;42.720;23.252;2023-12-20T04:58:20;234.35;;;51.13;;
20619;SDS011;10469;42.720;23.252;2023-12-20T05:00:45;242.93;;;58.08;;
20619;SDS011;10469;42.720;23.252;2023-12-20T05:03:11;328.95;;;71.82;;
20619;SDS011;10469;42.720;23.252;2023-12-20T05:05:36;248.73;;;63.65;;
20619;SDS011;10469;42.720;23.252;2023-12-20T05:08:02;247.52;;;58.67;;
20619;SDS011;10469;42.720;23.252;2023-12-20T05:10:28;199.30;;;60.42;;
20619;SDS011;10469;42.720;23.252;2023-12-20T05:12:53;195.38;;;53.70;;
20619;SDS011;10469;42.720;23.252;2023-12-20T05:15:19;261.30;;;59.90;;
20619;SDS011;10469;42.720;23.252;2023-12-20T05:17:44;336.85;;;68.65;;
20619;SDS011;10469;42.720;23.252;2023-12-20T05:20:10;203.40;;;58.53;;
20619;SDS011;10469;42.720;23.252;2023-12-20T05:22:36;287.58;;;65.93;;
20619;SDS011;10469;42.720;23.252;2023-12-20T05:25:01;155.73;;;52.97;;
20619;SDS011;10469;42.720;23.252;2023-12-20T05:27:27;244.27;;;59.35;;
20619;SDS011;10469;42.720;23.252;2023-12-20T05:29:52;238.48;;;60.45;;
20619;SDS011;10469;42.720;23.252;2023-12-20T05:32:22;235.20;;;67.47;;
20619;SDS011;10469;42.720;23.252;2023-12-20T05:34:48;251.07;;;69.13;;
20619;SDS011;10469;42.720;23.252;2023-12-20T05:37:13;226.45;;;65.95;;
20619;SDS011;10469;42.720;23.252;2023-12-20T05:39:39;222.93;;;66.07;;
20619;SDS011;10469;42.720;23.252;2023-12-20T05:42:04;243.18;;;64.35;;
20619;SDS011;10469;42.720;23.252;2023-12-20T05:44:30;258.00;;;67.63;;
20619;SDS011;10469;42.720;23.252;2023-12-20T05:46:55;205.75;;;68.47;;
20619;SDS011;10469;42.720;23.252;2023-12-20T05:49:21;192.27;;;65.88;;
20619;SDS011;10469;42.720;23.252;2023-12-20T05:51:47;273.48;;;66.15;;
20619;SDS011;10469;42.720;23.252;2023-12-20T05:54:13;187.80;;;63.25;;
20619;SDS011;10469;42.720;23.252;2023-12-20T05:56:38;357.98;;;74.07;;
20619;SDS011;10469;42.720;23.252;2023-12-20T05:59:04;449.70;;;80.28;;
20619;SDS011;10469;42.720;23.252;2023-12-20T06:01:29;201.38;;;65.78;;
20619;SDS011;10469;42.720;23.252;2023-12-20T06:03:55;243.38;;;68.35;;
20619;SDS011;10469;42.720;23.252;2023-12-20T06:06:21;287.38;;;69.75;;
20619;SDS011;10469;42.720;23.252;2023-12-20T06:08:46;282.35;;;66.65;;
20619;SDS011;10469;42.720;23.252;2023-12-20T06:11:14;234.40;;;64.82;;
20619;SDS011;10469;42.720;23.252;2023-12-20T06:13:40;249.73;;;67.13;;
20619;SDS011;10469;42.720;23.252;2023-12-20T06:16:06;305.27;;;60.15;;
20619;SDS011;10469;42.720;23.252;2023-12-20T06:18:34;238.50;;;54.80;;
20619;SDS011;10469;42.720;23.252;2023-12-20T06:21:01;193.77;;;45.85;;
20619;SDS011;10469;42.720;23.252;2023-12-20T06:23:27;144.20;;;45.22;;
20619;SDS011;10469;42.720;23.252;2023-12-20T06:25:53;141.98;;;41.75;;
20619;SDS011;10469;42.720;23.252;2023-12-20T06:28:18;129.40;;;44.50;;
20619;SDS011;10469;42.720;23.252;2023-12-20T06:30:44;146.60;;;37.45;;
20619;SDS011;10469;42.720;23.252;2023-12-20T06:33:10;95.90;;;34.95;;
20619;SDS011;10469;42.720;23.252;2023-12-20T06:35:36;160.60;;;37.50;;
20619;SDS011;10469;42.720;23.252;2023-12-20T06:38:02;101.55;;;35.28;;
20619;SDS011;10469;42.720;23.252;2023-12-20T06:40:27;146.40;;;35.63;;
20619;SDS011;10469;42.720;23.252;2023-12-20T06:42:53;81.03;;;34.25;;
20619;SDS011;10469;42.720;23.252;2023-12-20T06:45:19;90.88;;;36.53;;
20619;SDS011;10469;42.720;23.252;2023-12-20T06:47:45;78.45;;;33.78;;
20619;SDS011;10469;42.720;23.252;2023-12-20T06:50:10;92.47;;;41.20;;
20619;SDS011;10469;42.720;23.252;2023-12-20T06:52:36;99.05;;;42.72;;
20619;SDS011;10469;42.720;23.252;2023-12-20T06:55:01;126.43;;;49.10;;
20619;SDS011;10469;42.720;23.252;2023-12-20T06:57:27;102.35;;;43.13;;
20619;SDS011;10469;42.720;23.252;2023-12-20T06:59:52;111.95;;;48.35;;
20619;SDS011;10469;42.720;23.252;2023-12-20T07:02:18;110.93;;;46.45;;
20619;SDS011;10469;42.720;23.252;2023-12-20T07:04:43;109.95;;;44.60;;
20619;SDS011;10469;42.720;23.252;2023-12-20T07:07:09;106.40;;;46.42;;
20619;SDS011;10469;42.720;23.252;2023-12-20T07:09:34;99.65;;;43.50;;
20619;SDS011;10469;42.720;23.252;2023-12-20T07:12:00;113.10;;;48.92;;
20619;SDS011;10469;42.720;23.252;2023-12-20T07:14:25;101.82;;;45.92;;
20619;SDS011;10469;42.720;23.252;2023-12-20T07:16:51;99.95;;;44.88;;
20619;SDS011;10469;42.720;23.252;2023-12-20T07:19:16;92.53;;;42.72;;
20619;SDS011;10469;42.720;23.252;2023-12-20T07:21:42;120.70;;;42.90;;
20619;SDS011;10469;42.720;23.252;2023-12-20T07:24:08;97.88;;;42.88;;
20619;SDS011;10469;42.720;23.252;2023-12-20T07:26:34;121.90;;;51.47;;
20619;SDS011;10469;42.720;23.252;2023-12-20T07:29:00;110.13;;;48.20;;
20619;SDS011;10469;42.720;23.252;2023-12-20T07:31:25;167.73;;;56.38;;
20619;SDS011;10469;42.720;23.252;2023-12-20T07:33:51;166.05;;;54.63;;
20619;SDS011;10469;42.720;23.252;2023-12-20T07:36:16;239.77;;;63.67;;
20619;SDS011;10469;42.720;23.252;2023-12-20T07:38:44;148.75;;;55.25;;
20619;SDS011;10469;42.720;23.252;2023-12-20T07:41:10;144.18;;;52.72;;
20619;SDS011;10469;42.720;23.252;2023-12-20T07:43:36;181.07;;;49.85;;
20619;SDS011;10469;42.720;23.252;2023-12-20T07:46:05;164.13;;;51.47;;
20619;SDS011;10469;42.720;23.252;2023-12-20T07:48:32;128.18;;;52.13;;
20619;SDS011;10469;42.720;23.252;2023-12-20T07:50:58;110.47;;;52.45;;
20619;SDS011;10469;42.720;23.252;2023-12-20T07:53:24;115.90;;;48.40;;
20619;SDS011;10469;42.720;23.252;2023-12-20T07:55:49;158.98;;;49.38;;
20619;SDS011;10469;42.720;23.252;2023-12-20T07:58:15;106.60;;;50.22;;
20619;SDS011;10469;42.720;23.252;2023-12-20T08:00:40;128.60;;;48.92;;
20619;SDS011;10469;42.720;23.252;2023-12-20T08:03:06;121.30;;;46.53;;
20619;SDS011;10469;42.720;23.252;2023-12-20T08:05:32;154.43;;;52.33;;
20619;SDS011;10469;42.720;23.252;2023-12-20T08:07:57;95.70;;;44.42;;
20619;SDS011;10469;42.720;23.252;2023-12-20T08:10:23;127.60;;;45.60;;
20619;SDS011;10469;42.720;23.252;2023-12-20T08:12:49;130.45;;;47.78;;
20619;SDS011;10469;42.720;23.252;2023-12-20T08:15:14;112.22;;;49.47;;
20619;SDS011;10469;42.720;23.252;2023-12-20T08:17:40;154.68;;;48.05;;
20619;SDS011;10469;42.720;23.252;2023-12-20T08:20:05;134.82;;;50.83;;
20619;SDS011;10469;42.720;23.252;2023-12-20T08:22:31;99.60;;;48.00;;
20619;SDS011;10469;42.720;23.252;2023-12-20T08:24:57;112.85;;;46.53;;
20619;SDS011;10469;42.720;23.252;2023-12-20T08:27:22;116.25;;;45.40;;
20619;SDS011;10469;42.720;23.252;2023-12-20T08:29:48;126.10;;;46.42;;
20619;SDS011;10469;42.720;23.252;2023-12-20T08:32:15;109.38;;;46.00;;
20619;SDS011;10469;42.720;23.252;2023-12-20T08:34:40;99.40;;;46.78;;
20619;SDS011;10469;42.720;23.252;2023-12-20T08:37:06;110.75;;;47.95;;
20619;SDS011;10469;42.720;23.252;2023-12-20T08:39:31;97.65;;;44.95;;
20619;SDS011;10469;42.720;23.252;2023-12-20T08:41:58;105.20;;;47.20;;
20619;SDS011;10469;42.720;23.252;2023-12-20T08:44:24;107.30;;;50.50;;
20619;SDS011;10469;42.720;23.252;2023-12-20T08:46:49;108.53;;;51.00;;
20619;SDS011;10469;42.720;23.252;2023-12-20T08:49:15;106.50;;;50.78;;
20619;SDS011;10469;42.720;23.252;2023-12-20T08:51:40;119.15;;;52.22;;
20619;SDS011;10469;42.720;23.252;2023-12-20T08:54:07;117.47;;;53.65;;
20619;SDS011;10469;42.720;23.252;2023-12-20T08:56:35;126.60;;;58.60;;
20619;SDS011;10469;42.720;23.252;2023-12-20T08:59:01;124.28;;;59.03;;
20619;SDS011;10469;42.720;23.252;2023-12-20T09:01:26;126.65;;;58.70;;
20619;SDS011;10469;42.720;23.252;2023-12-20T09:03:52;125.63;;;57.45;;
20619;SDS011;10469;42.720;23.252;2023-12-20T09:06:17;114.80;;;58.08;;
20619;SDS011;10469;42.720;23.252;2023-12-20T09:08:42;122.72;;;60.53;;
20619;SDS011;10469;42.720;23.252;2023-12-20T09:11:08;125.75;;;58.67;;
20619;SDS011;10469;42.720;23.252;2023-12-20T09:13:33;119.20;;;58.65;;
20619;SDS011;10469;42.720;23.252;2023-12-20T09:15:59;128.85;;;59.17;;
20619;SDS011;10469;42.720;23.252;2023-12-20T09:18:24;131.35;;;61.10;;
20619;SDS011;10469;42.720;23.252;2023-12-20T09:20:50;124.28;;;61.30;;
20619;SDS011;10469;42.720;23.252;2023-12-20T09:23:16;147.18;;;67.30;;
20619;SDS011;10469;42.720;23.252;2023-12-20T09:25:42;135.27;;;64.40;;
20619;SDS011;10469;42.720;23.252;2023-12-20T09:28:08;136.00;;;61.95;;
20619;SDS011;10469;42.720;23.252;2023-12-20T09:30:33;137.23;;;64.70;;
20619;SDS011;10469;42.720;23.252;2023-12-20T09:33:00;152.50;;;66.82;;
20619;SDS011;10469;42.720;23.252;2023-12-20T09:35:26;152.25;;;67.88;;
20619;SDS011;10469;42.720;23.252;2023-12-20T09:37:51;164.88;;;72.65;;
20619;SDS011;10469;42.720;23.252;2023-12-20T09:40:20;169.05;;;78.10;;
20619;SDS011;10469;42.720;23.252;2023-12-20T09:45:21;169.75;;;76.63;;
20619;SDS011;10469;42.720;23.252;2023-12-20T09:47:48;151.45;;;72.05;;
20619;SDS011;10469;42.720;23.252;2023-12-20T09:50:15;159.80;;;73.20;;
20619;SDS011;10469;42.720;23.252;2023-12-20T09:52:43;151.07;;;71.80;;
20619;SDS011;10469;42.720;23.252;2023-12-20T09:55:09;153.93;;;72.85;;
20619;SDS011;10469;42.720;23.252;2023-12-20T09:57:35;160.02;;;74.15;;
20619;SDS011;10469;42.720;23.252;2023-12-20T10:00:00;155.25;;;73.80;;
20619;SDS011;10469;42.720;23.252;2023-12-20T10:02:26;155.43;;;76.32;;
20619;SDS011;10469;42.720;23.252;2023-12-20T10:04:52;165.13;;;77.47;;
20619;SDS011;10469;42.720;23.252;2023-12-20T10:07:19;158.88;;;78.75;;
20619;SDS011;10469;42.720;23.252;2023-12-20T10:09:45;181.45;;;92.82;;
20619;SDS011;10469;42.720;23.252;2023-12-20T10:12:12;174.43;;;90.30;;
20619;SDS011;10469;42.720;23.252;2023-12-20T10:14:38;173.48;;;85.13;;
20619;SDS011;10469;42.720;23.252;2023-12-20T10:17:04;163.50;;;84.80;;
20619;SDS011;10469;42.720;23.252;2023-12-20T10:19:31;167.00;;;81.60;;
20619;SDS011;10469;42.720;23.252;2023-12-20T10:21:58;163.30;;;76.53;;
20619;SDS011;10469;42.720;23.252;2023-12-20T10:24:24;160.13;;;76.32;;
20619;SDS011;10469;42.720;23.252;2023-12-20T10:27:00;169.73;;;80.05;;
20619;SDS011;10469;42.720;23.252;2023-12-20T10:29:31;162.65;;;76.35;;
20619;SDS011;10469;42.720;23.252;2023-12-20T10:31:58;144.80;;;72.95;;
20619;SDS011;10469;42.720;23.252;2023-12-20T10:34:23;150.20;;;71.78;;
20619;SDS011;10469;42.720;23.252;2023-12-20T10:36:49;143.35;;;73.50;;
20619;SDS011;10469;42.720;23.252;2023-12-20T10:39:15;127.90;;;65.82;;
20619;SDS011;10469;42.720;23.252;2023-12-20T10:41:40;130.50;;;68.32;;
20619;SDS011;10469;42.720;23.252;2023-12-20T10:44:08;130.73;;;65.18;;
20619;SDS011;10469;42.720;23.252;2023-12-20T10:46:35;125.05;;;64.85;;
20619;SDS011;10469;42.720;23.252;2023-12-20T10:49:03;126.50;;;63.35;;
20619;SDS011;10469;42.720;23.252;2023-12-20T10:51:32;122.57;;;63.60;;
20619;SDS011;10469;42.720;23.252;2023-12-20T10:54:00;123.55;;;66.60;;
20619;SDS011;10469;42.720;23.252;2023-12-20T10:56:25;127.95;;;67.25;;
20619;SDS011;10469;42.720;23.252;2023-12-20T10:58:54;122.82;;;66.93;;
20619;SDS011;10469;42.720;23.252;2023-12-20T11:01:22;123.93;;;65.15;;
20619;SDS011;10469;42.720;23.252;2023-12-20T11:03:49;122.05;;;63.60;;
20619;SDS011;10469;42.720;23.252;2023-12-20T11:09:03;125.20;;;66.00;;
20619;SDS011;10469;42.720;23.252;2023-12-20T11:14:31;122.68;;;63.92;;
20619;SDS011;10469;42.720;23.252;2023-12-20T11:17:06;124.90;;;68.40;;
20619;SDS011;10469;42.720;23.252;2023-12-20T11:19:45;123.97;;;65.00;;
20619;SDS011;10469;42.720;23.252;2023-12-20T11:22:27;123.55;;;68.43;;
20619;SDS011;10469;42.720;23.252;2023-12-20T11:24:58;137.88;;;68.70;;
20619;SDS011;10469;42.720;23.252;2023-12-20T11:27:27;131.07;;;72.67;;
20619;SDS011;10469;42.720;23.252;2023-12-20T11:29:53;139.48;;;76.80;;
20619;SDS011;10469;42.720;23.252;2023-12-20T11:37:29;152.90;;;84.93;;
20619;SDS011;10469;42.720;23.252;2023-12-20T11:40:05;164.57;;;87.95;;
20619;SDS011;10469;42.720;23.252;2023-12-20T11:42:43;172.32;;;93.65;;
20619;SDS011;10469;42.720;23.252;2023-12-20T11:45:14;167.90;;;96.18;;
20619;SDS011;10469;42.720;23.252;2023-12-20T11:47:45;167.70;;;95.40;;
20619;SDS011;10469;42.720;23.252;2023-12-20T11:50:14;174.15;;;94.55;;
20619;SDS011;10469;42.720;23.252;2023-12-20T11:52:40;165.85;;;95.70;;
20619;SDS011;10469;42.720;23.252;2023-12-20T11:55:06;167.45;;;86.55;;
20619;SDS011;10469;42.720;23.252;2023-12-20T11:57:32;150.07;;;82.50;;
20619;SDS011;10469;42.720;23.252;2023-12-20T11:59:58;147.02;;;77.78;;
20619;SDS011;10469;42.720;23.252;2023-12-20T12:02:24;135.43;;;71.05;;
20619;SDS011;10469;42.720;23.252;2023-12-20T12:04:50;139.02;;;73.30;;
20619;SDS011;10469;42.720;23.252;2023-12-20T12:07:18;137.50;;;70.35;;
20619;SDS011;10469;42.720;23.252;2023-12-20T12:09:44;138.93;;;71.38;;
20619;SDS011;10469;42.720;23.252;2023-12-20T12:12:11;147.00;;;72.93;;
20619;SDS011;10469;42.720;23.252;2023-12-20T12:14:37;144.50;;;76.20;;
20619;SDS011;10469;42.720;23.252;2023-12-20T12:17:09;136.55;;;75.10;;
20619;SDS011;10469;42.720;23.252;2023-12-20T12:19:35;140.13;;;76.10;;
20619;SDS011;10469;42.720;23.252;2023-12-20T12:22:09;158.52;;;86.80;;
20619;SDS011;10469;42.720;23.252;2023-12-20T12:24:47;161.18;;;88.35;;
20619;SDS011;10469;42.720;23.252;2023-12-20T12:27:14;169.48;;;85.40;;
20619;SDS011;10469;42.720;23.252;2023-12-20T12:29:41;175.52;;;91.18;;
20619;SDS011;10469;42.720;23.252;2023-12-20T12:32:24;166.48;;;89.25;;
20619;SDS011;10469;42.720;23.252;2023-12-20T12:34:50;164.80;;;89.10;;
20619;SDS011;10469;42.720;23.252;2023-12-20T12:37:16;169.50;;;91.45;;
20619;SDS011;10469;42.720;23.252;2023-12-20T12:39:41;177.50;;;91.97;;
20619;SDS011;10469;42.720;23.252;2023-12-20T12:42:07;172.48;;;91.75;;
20619;SDS011;10469;42.720;23.252;2023-12-20T12:44:32;180.55;;;97.45;;
20619;SDS011;10469;42.720;23.252;2023-12-20T12:46:58;176.02;;;95.20;;
20619;SDS011;10469;42.720;23.252;2023-12-20T12:49:24;193.88;;;102.20;;
20619;SDS011;10469;42.720;23.252;2023-12-20T12:51:49;192.80;;;102.78;;
20619;SDS011;10469;42.720;23.252;2023-12-20T12:54:15;197.13;;;102.55;;
20619;SDS011;10469;42.720;23.252;2023-12-20T12:56:43;201.60;;;105.25;;
20619;SDS011;10469;42.720;23.252;2023-12-20T12:59:09;195.43;;;107.97;;
20619;SDS011;10469;42.720;23.252;2023-12-20T13:01:36;193.50;;;107.82;;
20619;SDS011;10469;42.720;23.252;2023-12-20T13:04:01;204.77;;;107.65;;
20619;SDS011;10469;42.720;23.252;2023-12-20T13:06:29;206.40;;;109.32;;
20619;SDS011;10469;42.720;23.252;2023-12-20T13:08:54;210.63;;;108.47;;
20619;SDS011;10469;42.720;23.252;2023-12-20T13:11:20;214.38;;;114.10;;
20619;SDS011;10469;42.720;23.252;2023-12-20T13:13:45;221.90;;;114.50;;
20619;SDS011;10469;42.720;23.252;2023-12-20T13:16:11;201.57;;;112.20;;
20619;SDS011;10469;42.720;23.252;2023-12-20T13:18:37;215.23;;;115.90;;
20619;SDS011;10469;42.720;23.252;2023-12-20T13:21:07;223.48;;;115.05;;
20619;SDS011;10469;42.720;23.252;2023-12-20T13:23:32;218.15;;;121.38;;
20619;SDS011;10469;42.720;23.252;2023-12-20T13:25:58;220.45;;;117.25;;
20619;SDS011;10469;42.720;23.252;2023-12-20T13:28:23;209.02;;;115.75;;
20619;SDS011;10469;42.720;23.252;2023-12-20T13:30:49;213.25;;;109.97;;
20619;SDS011;10469;42.720;23.252;2023-12-20T13:33:14;226.10;;;110.95;;
20619;SDS011;10469;42.720;23.252;2023-12-20T13:35:40;223.50;;;113.22;;
20619;SDS011;10469;42.720;23.252;2023-12-20T13:38:05;233.88;;;118.40;;
20619;SDS011;10469;42.720;23.252;2023-12-20T13:40:31;233.38;;;117.53;;
20619;SDS011;10469;42.720;23.252;2023-12-20T13:42:57;232.07;;;119.72;;
20619;SDS011;10469;42.720;23.252;2023-12-20T13:45:23;226.18;;;118.28;;
20619;SDS011;10469;42.720;23.252;2023-12-20T13:47:50;227.57;;;116.20;;
20619;SDS011;10469;42.720;23.252;2023-12-20T13:50:16;231.23;;;111.57;;
20619;SDS011;10469;42.720;23.252;2023-12-20T13:52:41;223.93;;;116.32;;
20619;SDS011;10469;42.720;23.252;2023-12-20T13:55:07;223.25;;;115.68;;
20619;SDS011;10469;42.720;23.252;2023-12-20T13:57:33;231.05;;;113.53;;
20619;SDS011;10469;42.720;23.252;2023-12-20T13:59:59;230.43;;;115.20;;
20619;SDS011;10469;42.720;23.252;2023-12-20T14:02:25;238.07;;;119.93;;
20619;SDS011;10469;42.720;23.252;2023-12-20T14:04:52;232.77;;;114.63;;
20619;SDS011;10469;42.720;23.252;2023-12-20T14:07:17;244.32;;;118.93;;